sensor_id;sensor_type;location;lat;lon;timestamp;temperature;humidity
314;DHT22;143;51.634;7.112;2023-12-22T00:01:01;6.60;1.00
314;DHT22;143;51.634;7.112;2023-12-22T00:03:26;6.30;1.00
314;DHT22;143;51.634;7.112;2023-12-22T00:05:52;6.40;1.00
314;DHT22;143;51.634;7.112;2023-12-22T00:08:17;6.60;1.00
314;DHT22;143;51.634;7.112;2023-12-22T00:10:43;6.40;1.00
314;DHT22;143;51.634;7.112;2023-12-22T00:13:09;6.10;1.00
314;DHT22;143;51.634;7.112;2023-12-22T00:15:34;6.40;1.00
314;DHT22;143;51.634;7.112;2023-12-22T00:18:00;6.30;1.00
314;DHT22;143;51.634;7.112;2023-12-22T00:20:25;6.40;1.00
314;DHT22;143;51.634;7.112;2023-12-22T00:22:51;6.40;1.00
314;DHT22;143;51.634;7.112;2023-12-22T00:25:16;6.20;1.00
314;DHT22;143;51.634;7.112;2023-12-22T00:27:42;6.10;1.00
314;DHT22;143;51.634;7.112;2023-12-22T00:30:08;6.20;1.00
314;DHT22;143;51.634;7.112;2023-12-22T00:32:34;6.40;1.00
314;DHT22;143;51.634;7.112;2023-12-22T00:34:59;6.10;1.00
314;DHT22;143;51.634;7.112;2023-12-22T00:37:25;6.20;1.00
314;DHT22;143;51.634;7.112;2023-12-22T00:39:51;6.10;1.00
314;DHT22;143;51.634;7.112;2023-12-22T00:42:16;6.40;1.00
314;DHT22;143;51.634;7.112;2023-12-22T00:44:42;6.20;1.00
314;DHT22;143;51.634;7.112;2023-12-22T00:47:08;6.00;1.00
314;DHT22;143;51.634;7.112;2023-12-22T00:49:33;6.40;1.00
314;DHT22;143;51.634;7.112;2023-12-22T00:51:59;6.00;1.00
314;DHT22;143;51.634;7.112;2023-12-22T00:54:24;6.10;1.00
314;DHT22;143;51.634;7.112;2023-12-22T00:56:50;6.20;1.00
314;DHT22;143;51.634;7.112;2023-12-22T00:59:16;6.30;1.00
314;DHT22;143;51.634;7.112;2023-12-22T01:01:41;6.20;1.00
314;DHT22;143;51.634;7.112;2023-12-22T01:04:07;6.10;1.00
314;DHT22;143;51.634;7.112;2023-12-22T01:06:37;6.10;1.00
314;DHT22;143;51.634;7.112;2023-12-22T01:09:02;6.10;1.00
314;DHT22;143;51.634;7.112;2023-12-22T01:11:28;6.20;1.00
314;DHT22;143;51.634;7.112;2023-12-22T01:13:53;6.10;1.00
314;DHT22;143;51.634;7.112;2023-12-22T01:16:19;6.30;1.00
314;DHT22;143;51.634;7.112;2023-12-22T01:18:47;6.40;1.00
314;DHT22;143;51.634;7.112;2023-12-22T01:21:13;6.10;1.00
314;DHT22;143;51.634;7.112;2023-12-22T01:23:38;6.30;1.00
314;DHT22;143;51.634;7.112;2023-12-22T01:26:04;6.30;1.00
314;DHT22;143;51.634;7.112;2023-12-22T01:28:29;6.20;1.00
314;DHT22;143;51.634;7.112;2023-12-22T01:30:55;6.50;1.00
314;DHT22;143;51.634;7.112;2023-12-22T01:33:20;6.20;1.00
314;DHT22;143;51.634;7.112;2023-12-22T01:35:46;6.30;1.00
314;DHT22;143;51.634;7.112;2023-12-22T01:38:12;6.60;1.00
314;DHT22;143;51.634;7.112;2023-12-22T01:40:38;6.20;1.00
314;DHT22;143;51.634;7.112;2023-12-22T01:43:03;6.40;1.00
314;DHT22;143;51.634;7.112;2023-12-22T01:45:29;6.40;1.00
314;DHT22;143;51.634;7.112;2023-12-22T01:47:55;6.40;1.00
314;DHT22;143;51.634;7.112;2023-12-22T01:50:20;6.30;1.00
314;DHT22;143;51.634;7.112;2023-12-22T01:52:46;6.40;1.00
314;DHT22;143;51.634;7.112;2023-12-22T01:55:13;6.60;1.00
314;DHT22;143;51.634;7.112;2023-12-22T01:57:41;6.20;1.00
314;DHT22;143;51.634;7.112;2023-12-22T02:00:08;6.50;1.00
314;DHT22;143;51.634;7.112;2023-12-22T02:02:34;6.40;1.00
314;DHT22;143;51.634;7.112;2023-12-22T02:05:00;6.40;1.00
314;DHT22;143;51.634;7.112;2023-12-22T02:07:26;6.50;1.00
314;DHT22;143;51.634;7.112;2023-12-22T02:09:52;6.20;1.00
314;DHT22;143;51.634;7.112;2023-12-22T02:12:18;6.20;1.00
314;DHT22;143;51.634;7.112;2023-12-22T02:14:44;6.20;1.00
314;DHT22;143;51.634;7.112;2023-12-22T02:17:32;6.10;1.00
314;DHT22;143;51.634;7.112;2023-12-22T02:19:58;6.20;1.00
314;DHT22;143;51.634;7.112;2023-12-22T02:22:24;6.50;1.00
314;DHT22;143;51.634;7.112;2023-12-22T02:24:50;6.20;1.00
314;DHT22;143;51.634;7.112;2023-12-22T02:30:14;6.10;1.00
314;DHT22;143;51.634;7.112;2023-12-22T02:32:43;6.10;1.00
314;DHT22;143;51.634;7.112;2023-12-22T02:35:16;6.20;1.00
314;DHT22;143;51.634;7.112;2023-12-22T02:37:45;6.30;1.00
314;DHT22;143;51.634;7.112;2023-12-22T02:40:12;6.10;1.00
314;DHT22;143;51.634;7.112;2023-12-22T02:42:41;6.10;1.00
314;DHT22;143;51.634;7.112;2023-12-22T02:45:13;6.10;1.00
314;DHT22;143;51.634;7.112;2023-12-22T02:47:39;6.10;1.00
314;DHT22;143;51.634;7.112;2023-12-22T02:50:05;6.10;1.00
314;DHT22;143;51.634;7.112;2023-12-22T02:52:31;6.00;1.00
314;DHT22;143;51.634;7.112;2023-12-22T02:54:58;6.30;1.00
314;DHT22;143;51.634;7.112;2023-12-22T02:57:23;6.00;1.00
314;DHT22;143;51.634;7.112;2023-12-22T02:59:49;6.10;1.00
314;DHT22;143;51.634;7.112;2023-12-22T03:02:14;6.30;1.00
314;DHT22;143;51.634;7.112;2023-12-22T03:04:40;6.10;1.00
314;DHT22;143;51.634;7.112;2023-12-22T03:07:06;5.90;1.00
314;DHT22;143;51.634;7.112;2023-12-22T03:09:31;6.00;1.00
314;DHT22;143;51.634;7.112;2023-12-22T03:11:57;6.10;1.00
314;DHT22;143;51.634;7.112;2023-12-22T03:14:31;5.80;1.00
314;DHT22;143;51.634;7.112;2023-12-22T03:17:07;5.90;1.00
314;DHT22;143;51.634;7.112;2023-12-22T03:19:33;5.80;1.00
314;DHT22;143;51.634;7.112;2023-12-22T03:22:00;5.90;1.00
314;DHT22;143;51.634;7.112;2023-12-22T03:24:26;6.10;1.00
314;DHT22;143;51.634;7.112;2023-12-22T03:26:53;5.80;1.00
314;DHT22;143;51.634;7.112;2023-12-22T03:29:19;6.00;1.00
314;DHT22;143;51.634;7.112;2023-12-22T03:31:45;5.80;1.00
314;DHT22;143;51.634;7.112;2023-12-22T03:34:12;5.90;1.00
314;DHT22;143;51.634;7.112;2023-12-22T03:36:37;6.20;1.00
314;DHT22;143;51.634;7.112;2023-12-22T03:39:04;6.00;1.00
314;DHT22;143;51.634;7.112;2023-12-22T03:41:30;5.90;1.00
314;DHT22;143;51.634;7.112;2023-12-22T03:43:56;6.10;1.00
314;DHT22;143;51.634;7.112;2023-12-22T03:46:22;5.80;1.00
314;DHT22;143;51.634;7.112;2023-12-22T03:48:47;6.20;1.00
314;DHT22;143;51.634;7.112;2023-12-22T03:51:13;6.00;1.00
314;DHT22;143;51.634;7.112;2023-12-22T03:53:40;6.10;1.00
314;DHT22;143;51.634;7.112;2023-12-22T03:56:08;5.90;1.00
314;DHT22;143;51.634;7.112;2023-12-22T03:58:34;6.10;1.00
314;DHT22;143;51.634;7.112;2023-12-22T04:01:00;6.20;1.00
314;DHT22;143;51.634;7.112;2023-12-22T04:03:25;5.90;1.00
314;DHT22;143;51.634;7.112;2023-12-22T04:05:51;5.80;1.00
314;DHT22;143;51.634;7.112;2023-12-22T04:08:17;5.70;1.00
314;DHT22;143;51.634;7.112;2023-12-22T04:10:42;5.80;1.00
314;DHT22;143;51.634;7.112;2023-12-22T04:13:09;5.80;1.00
314;DHT22;143;51.634;7.112;2023-12-22T04:15:35;5.60;1.00
314;DHT22;143;51.634;7.112;2023-12-22T04:18:00;5.50;1.00
314;DHT22;143;51.634;7.112;2023-12-22T04:20:26;5.60;1.00
314;DHT22;143;51.634;7.112;2023-12-22T04:22:51;5.60;1.00
314;DHT22;143;51.634;7.112;2023-12-22T04:25:17;5.60;1.00
314;DHT22;143;51.634;7.112;2023-12-22T04:27:43;5.60;1.00
314;DHT22;143;51.634;7.112;2023-12-22T04:30:12;5.60;1.00
314;DHT22;143;51.634;7.112;2023-12-22T04:32:38;5.60;1.00
314;DHT22;143;51.634;7.112;2023-12-22T04:35:04;5.50;1.00
314;DHT22;143;51.634;7.112;2023-12-22T04:37:29;5.60;1.00
314;DHT22;143;51.634;7.112;2023-12-22T04:39:55;5.50;1.00
314;DHT22;143;51.634;7.112;2023-12-22T04:42:20;5.70;1.00
314;DHT22;143;51.634;7.112;2023-12-22T04:44:46;5.60;1.00
314;DHT22;143;51.634;7.112;2023-12-22T04:47:11;5.60;1.00
314;DHT22;143;51.634;7.112;2023-12-22T04:49:38;5.60;1.00
314;DHT22;143;51.634;7.112;2023-12-22T04:52:03;5.60;1.00
314;DHT22;143;51.634;7.112;2023-12-22T04:54:29;5.60;1.00
314;DHT22;143;51.634;7.112;2023-12-22T04:56:55;5.50;1.00
314;DHT22;143;51.634;7.112;2023-12-22T04:59:21;5.50;1.00
314;DHT22;143;51.634;7.112;2023-12-22T05:01:46;5.40;1.00
314;DHT22;143;51.634;7.112;2023-12-22T05:04:12;5.40;1.00
314;DHT22;143;51.634;7.112;2023-12-22T05:06:37;5.60;1.00
314;DHT22;143;51.634;7.112;2023-12-22T05:09:03;5.60;1.00
314;DHT22;143;51.634;7.112;2023-12-22T05:11:28;5.40;1.00
314;DHT22;143;51.634;7.112;2023-12-22T05:13:54;5.60;1.00
314;DHT22;143;51.634;7.112;2023-12-22T05:16:23;5.60;1.00
314;DHT22;143;51.634;7.112;2023-12-22T05:18:48;5.40;1.00
314;DHT22;143;51.634;7.112;2023-12-22T05:21:14;5.70;1.00
314;DHT22;143;51.634;7.112;2023-12-22T05:23:40;5.60;1.00
314;DHT22;143;51.634;7.112;2023-12-22T05:26:05;5.80;1.00
314;DHT22;143;51.634;7.112;2023-12-22T05:28:32;5.80;1.00
314;DHT22;143;51.634;7.112;2023-12-22T05:30:57;5.80;1.00
314;DHT22;143;51.634;7.112;2023-12-22T05:33:23;5.80;1.00
314;DHT22;143;51.634;7.112;2023-12-22T05:35:49;5.90;1.00
314;DHT22;143;51.634;7.112;2023-12-22T05:38:14;5.70;1.00
314;DHT22;143;51.634;7.112;2023-12-22T05:40:40;5.80;1.00
314;DHT22;143;51.634;7.112;2023-12-22T05:43:05;5.90;1.00
314;DHT22;143;51.634;7.112;2023-12-22T05:45:31;5.90;1.00
314;DHT22;143;51.634;7.112;2023-12-22T05:47:56;5.70;1.00
314;DHT22;143;51.634;7.112;2023-12-22T05:50:22;5.90;1.00
314;DHT22;143;51.634;7.112;2023-12-22T05:52:47;5.90;1.00
314;DHT22;143;51.634;7.112;2023-12-22T05:55:13;5.90;1.00
314;DHT22;143;51.634;7.112;2023-12-22T05:57:38;5.60;1.00
314;DHT22;143;51.634;7.112;2023-12-22T06:00:07;5.70;1.00
314;DHT22;143;51.634;7.112;2023-12-22T06:02:35;5.80;1.00
314;DHT22;143;51.634;7.112;2023-12-22T06:05:01;6.00;1.00
314;DHT22;143;51.634;7.112;2023-12-22T06:07:26;5.90;1.00
314;DHT22;143;51.634;7.112;2023-12-22T06:09:52;5.70;1.00
314;DHT22;143;51.634;7.112;2023-12-22T06:12:18;6.00;1.00
314;DHT22;143;51.634;7.112;2023-12-22T06:14:43;5.90;1.00
314;DHT22;143;51.634;7.112;2023-12-22T06:17:09;6.10;1.00
314;DHT22;143;51.634;7.112;2023-12-22T06:19:37;6.10;1.00
314;DHT22;143;51.634;7.112;2023-12-22T06:22:03;6.20;1.00
314;DHT22;143;51.634;7.112;2023-12-22T06:24:29;5.90;1.00
314;DHT22;143;51.634;7.112;2023-12-22T06:26:54;6.00;1.00
314;DHT22;143;51.634;7.112;2023-12-22T06:29:20;6.10;1.00
314;DHT22;143;51.634;7.112;2023-12-22T06:31:45;6.20;1.00
314;DHT22;143;51.634;7.112;2023-12-22T06:34:18;6.10;1.00
314;DHT22;143;51.634;7.112;2023-12-22T06:36:44;6.00;1.00
314;DHT22;143;51.634;7.112;2023-12-22T06:39:09;6.10;1.00
314;DHT22;143;51.634;7.112;2023-12-22T06:41:35;6.20;1.00
314;DHT22;143;51.634;7.112;2023-12-22T06:44:01;6.10;1.00
314;DHT22;143;51.634;7.112;2023-12-22T06:46:27;6.20;1.00
314;DHT22;143;51.634;7.112;2023-12-22T06:48:55;6.10;1.00
314;DHT22;143;51.634;7.112;2023-12-22T06:51:29;6.10;1.00
314;DHT22;143;51.634;7.112;2023-12-22T06:54:01;6.10;1.00
314;DHT22;143;51.634;7.112;2023-12-22T06:56:33;6.20;1.00
314;DHT22;143;51.634;7.112;2023-12-22T06:58:59;6.10;1.00
314;DHT22;143;51.634;7.112;2023-12-22T07:01:29;6.20;1.00
314;DHT22;143;51.634;7.112;2023-12-22T07:03:55;6.00;1.00
314;DHT22;143;51.634;7.112;2023-12-22T07:06:22;6.10;1.00
314;DHT22;143;51.634;7.112;2023-12-22T07:11:50;6.30;1.00
314;DHT22;143;51.634;7.112;2023-12-22T07:14:17;6.00;1.00
314;DHT22;143;51.634;7.112;2023-12-22T07:16:42;6.30;1.00
314;DHT22;143;51.634;7.112;2023-12-22T07:19:08;6.10;1.00
314;DHT22;143;51.634;7.112;2023-12-22T07:21:34;6.10;1.00
314;DHT22;143;51.634;7.112;2023-12-22T07:24:00;6.10;1.00
314;DHT22;143;51.634;7.112;2023-12-22T07:26:26;6.30;1.00
314;DHT22;143;51.634;7.112;2023-12-22T07:28:52;6.20;1.00
314;DHT22;143;51.634;7.112;2023-12-22T07:31:18;6.10;1.00
314;DHT22;143;51.634;7.112;2023-12-22T07:33:43;6.10;1.00
314;DHT22;143;51.634;7.112;2023-12-22T07:36:09;6.10;1.00
314;DHT22;143;51.634;7.112;2023-12-22T07:38:35;6.10;1.00
314;DHT22;143;51.634;7.112;2023-12-22T07:41:01;6.10;1.00
314;DHT22;143;51.634;7.112;2023-12-22T07:43:27;6.20;1.00
314;DHT22;143;51.634;7.112;2023-12-22T07:45:54;6.10;1.00
314;DHT22;143;51.634;7.112;2023-12-22T07:48:20;6.30;1.00
314;DHT22;143;51.634;7.112;2023-12-22T07:50:46;6.20;1.00
314;DHT22;143;51.634;7.112;2023-12-22T07:53:11;6.10;1.00
314;DHT22;143;51.634;7.112;2023-12-22T07:55:37;6.30;1.00
314;DHT22;143;51.634;7.112;2023-12-22T07:58:04;6.10;1.00
314;DHT22;143;51.634;7.112;2023-12-22T08:00:30;6.40;1.00
314;DHT22;143;51.634;7.112;2023-12-22T08:02:55;6.40;1.00
314;DHT22;143;51.634;7.112;2023-12-22T08:05:21;6.30;1.00
314;DHT22;143;51.634;7.112;2023-12-22T08:07:46;6.40;1.00
314;DHT22;143;51.634;7.112;2023-12-22T08:10:12;6.30;1.00
314;DHT22;143;51.634;7.112;2023-12-22T08:12:37;6.50;1.00
314;DHT22;143;51.634;7.112;2023-12-22T08:15:03;6.50;1.00
314;DHT22;143;51.634;7.112;2023-12-22T08:17:29;6.90;1.00
314;DHT22;143;51.634;7.112;2023-12-22T08:19:55;6.70;1.00
314;DHT22;143;51.634;7.112;2023-12-22T08:22:21;6.70;1.00
314;DHT22;143;51.634;7.112;2023-12-22T08:24:48;7.00;1.00
314;DHT22;143;51.634;7.112;2023-12-22T08:27:13;7.10;1.00
314;DHT22;143;51.634;7.112;2023-12-22T08:29:39;6.90;1.00
314;DHT22;143;51.634;7.112;2023-12-22T08:32:05;7.00;1.00
314;DHT22;143;51.634;7.112;2023-12-22T08:34:31;7.10;1.00
314;DHT22;143;51.634;7.112;2023-12-22T08:36:56;7.10;1.00
314;DHT22;143;51.634;7.112;2023-12-22T08:39:22;7.20;1.00
314;DHT22;143;51.634;7.112;2023-12-22T08:41:49;7.10;1.00
314;DHT22;143;51.634;7.112;2023-12-22T08:44:15;7.10;1.00
314;DHT22;143;51.634;7.112;2023-12-22T08:46:40;7.10;1.00
314;DHT22;143;51.634;7.112;2023-12-22T08:49:06;7.50;1.00
314;DHT22;143;51.634;7.112;2023-12-22T08:51:33;7.60;1.00
314;DHT22;143;51.634;7.112;2023-12-22T08:53:59;7.60;1.00
314;DHT22;143;51.634;7.112;2023-12-22T08:56:25;7.30;1.00
314;DHT22;143;51.634;7.112;2023-12-22T08:58:52;7.60;1.00
314;DHT22;143;51.634;7.112;2023-12-22T09:01:20;7.70;1.00
314;DHT22;143;51.634;7.112;2023-12-22T09:03:47;7.60;1.00
314;DHT22;143;51.634;7.112;2023-12-22T09:06:31;7.70;1.00
314;DHT22;143;51.634;7.112;2023-12-22T09:08:56;7.60;1.00
314;DHT22;143;51.634;7.112;2023-12-22T09:11:22;7.60;1.00
314;DHT22;143;51.634;7.112;2023-12-22T09:13:47;7.70;1.00
314;DHT22;143;51.634;7.112;2023-12-22T09:16:13;7.90;1.00
314;DHT22;143;51.634;7.112;2023-12-22T09:18:40;8.00;1.00
314;DHT22;143;51.634;7.112;2023-12-22T09:21:07;7.80;1.00
314;DHT22;143;51.634;7.112;2023-12-22T09:23:33;7.90;1.00
314;DHT22;143;51.634;7.112;2023-12-22T09:25:58;7.90;1.00
314;DHT22;143;51.634;7.112;2023-12-22T09:28:24;7.90;1.00
314;DHT22;143;51.634;7.112;2023-12-22T09:30:50;7.90;1.00
314;DHT22;143;51.634;7.112;2023-12-22T09:33:16;8.10;1.00
314;DHT22;143;51.634;7.112;2023-12-22T09:35:42;7.70;1.00
314;DHT22;143;51.634;7.112;2023-12-22T09:38:08;7.90;1.00
314;DHT22;143;51.634;7.112;2023-12-22T09:40:38;7.90;1.00
314;DHT22;143;51.634;7.112;2023-12-22T09:43:06;7.60;1.00
314;DHT22;143;51.634;7.112;2023-12-22T09:45:33;7.60;1.00
314;DHT22;143;51.634;7.112;2023-12-22T09:48:02;7.80;1.00
314;DHT22;143;51.634;7.112;2023-12-22T09:50:29;7.50;1.00
314;DHT22;143;51.634;7.112;2023-12-22T09:52:55;7.50;1.00
314;DHT22;143;51.634;7.112;2023-12-22T09:55:25;7.60;1.00
314;DHT22;143;51.634;7.112;2023-12-22T09:57:52;7.70;1.00
314;DHT22;143;51.634;7.112;2023-12-22T10:00:18;7.60;1.00
314;DHT22;143;51.634;7.112;2023-12-22T10:02:44;7.60;1.00
314;DHT22;143;51.634;7.112;2023-12-22T10:05:11;7.50;1.00
314;DHT22;143;51.634;7.112;2023-12-22T10:07:39;7.60;1.00
314;DHT22;143;51.634;7.112;2023-12-22T10:10:07;7.50;1.00
314;DHT22;143;51.634;7.112;2023-12-22T10:12:34;7.50;1.00
314;DHT22;143;51.634;7.112;2023-12-22T10:15:00;7.40;1.00
314;DHT22;143;51.634;7.112;2023-12-22T10:17:26;7.60;1.00
314;DHT22;143;51.634;7.112;2023-12-22T10:19:52;7.60;1.00
314;DHT22;143;51.634;7.112;2023-12-22T10:22:18;7.60;1.00
314;DHT22;143;51.634;7.112;2023-12-22T10:24:45;7.60;1.00
314;DHT22;143;51.634;7.112;2023-12-22T10:27:16;7.70;1.00
314;DHT22;143;51.634;7.112;2023-12-22T10:29:54;7.50;1.00
314;DHT22;143;51.634;7.112;2023-12-22T10:32:20;7.50;1.00
314;DHT22;143;51.634;7.112;2023-12-22T10:34:46;7.40;1.00
314;DHT22;143;51.634;7.112;2023-12-22T10:37:12;7.50;1.00
314;DHT22;143;51.634;7.112;2023-12-22T10:39:38;7.30;1.00
314;DHT22;143;51.634;7.112;2023-12-22T10:42:04;7.50;1.00
314;DHT22;143;51.634;7.112;2023-12-22T10:44:30;7.50;1.00
314;DHT22;143;51.634;7.112;2023-12-22T10:46:56;7.60;1.00
314;DHT22;143;51.634;7.112;2023-12-22T10:49:24;7.50;1.00
314;DHT22;143;51.634;7.112;2023-12-22T10:51:50;7.70;1.00
314;DHT22;143;51.634;7.112;2023-12-22T10:54:16;7.70;1.00
314;DHT22;143;51.634;7.112;2023-12-22T10:56:42;7.70;1.00
314;DHT22;143;51.634;7.112;2023-12-22T10:59:11;7.60;1.00
314;DHT22;143;51.634;7.112;2023-12-22T11:01:37;7.70;1.00
314;DHT22;143;51.634;7.112;2023-12-22T11:04:06;7.60;1.00
314;DHT22;143;51.634;7.112;2023-12-22T11:06:35;7.80;1.00
314;DHT22;143;51.634;7.112;2023-12-22T11:09:06;8.00;1.00
314;DHT22;143;51.634;7.112;2023-12-22T11:11:37;7.80;1.00
314;DHT22;143;51.634;7.112;2023-12-22T11:14:04;7.80;1.00
314;DHT22;143;51.634;7.112;2023-12-22T11:16:31;7.70;1.00
314;DHT22;143;51.634;7.112;2023-12-22T11:18:59;7.80;1.00
314;DHT22;143;51.634;7.112;2023-12-22T11:21:25;7.90;1.00
314;DHT22;143;51.634;7.112;2023-12-22T11:23:52;8.00;1.00
314;DHT22;143;51.634;7.112;2023-12-22T11:26:18;8.00;1.00
314;DHT22;143;51.634;7.112;2023-12-22T11:28:48;7.90;1.00
314;DHT22;143;51.634;7.112;2023-12-22T11:31:15;7.70;1.00
314;DHT22;143;51.634;7.112;2023-12-22T11:33:49;7.90;1.00
314;DHT22;143;51.634;7.112;2023-12-22T11:36:17;7.80;1.00
314;DHT22;143;51.634;7.112;2023-12-22T11:38:44;7.70;1.00
314;DHT22;143;51.634;7.112;2023-12-22T11:41:17;8.00;1.00
314;DHT22;143;51.634;7.112;2023-12-22T11:43:44;7.90;1.00
314;DHT22;143;51.634;7.112;2023-12-22T11:46:10;7.60;1.00
314;DHT22;143;51.634;7.112;2023-12-22T11:48:37;7.90;1.00
314;DHT22;143;51.634;7.112;2023-12-22T11:51:15;7.60;1.00
314;DHT22;143;51.634;7.112;2023-12-22T11:53:40;7.50;1.00
314;DHT22;143;51.634;7.112;2023-12-22T11:56:07;7.60;1.00
314;DHT22;143;51.634;7.112;2023-12-22T12:01:07;7.90;1.00
314;DHT22;143;51.634;7.112;2023-12-22T12:03:36;8.10;1.00
314;DHT22;143;51.634;7.112;2023-12-22T12:08:54;7.90;1.00
314;DHT22;143;51.634;7.112;2023-12-22T12:11:20;8.00;1.00
314;DHT22;143;51.634;7.112;2023-12-22T12:13:47;8.20;1.00
314;DHT22;143;51.634;7.112;2023-12-22T12:16:14;8.20;1.00
314;DHT22;143;51.634;7.112;2023-12-22T12:18:41;8.20;1.00
314;DHT22;143;51.634;7.112;2023-12-22T12:21:07;8.30;1.00
314;DHT22;143;51.634;7.112;2023-12-22T12:23:34;8.00;1.00
314;DHT22;143;51.634;7.112;2023-12-22T12:26:00;8.20;1.00
314;DHT22;143;51.634;7.112;2023-12-22T12:28:28;8.40;1.00
314;DHT22;143;51.634;7.112;2023-12-22T12:31:02;8.10;1.00
314;DHT22;143;51.634;7.112;2023-12-22T12:33:29;8.40;1.00
314;DHT22;143;51.634;7.112;2023-12-22T12:35:59;8.60;1.00
314;DHT22;143;51.634;7.112;2023-12-22T12:41:09;8.40;1.00
314;DHT22;143;51.634;7.112;2023-12-22T12:43:35;8.40;1.00
314;DHT22;143;51.634;7.112;2023-12-22T12:46:07;8.10;1.00
314;DHT22;143;51.634;7.112;2023-12-22T12:48:33;8.10;1.00
314;DHT22;143;51.634;7.112;2023-12-22T12:51:03;8.10;1.00
314;DHT22;143;51.634;7.112;2023-12-22T12:53:31;8.00;1.00
314;DHT22;143;51.634;7.112;2023-12-22T12:55:58;8.20;1.00
314;DHT22;143;51.634;7.112;2023-12-22T12:58:31;8.50;1.00
314;DHT22;143;51.634;7.112;2023-12-22T13:01:10;8.30;1.00
314;DHT22;143;51.634;7.112;2023-12-22T13:03:56;8.60;1.00
314;DHT22;143;51.634;7.112;2023-12-22T13:06:23;8.60;1.00
314;DHT22;143;51.634;7.112;2023-12-22T13:08:52;8.60;1.00
314;DHT22;143;51.634;7.112;2023-12-22T13:11:31;8.60;1.00
314;DHT22;143;51.634;7.112;2023-12-22T13:13:57;8.50;1.00
314;DHT22;143;51.634;7.112;2023-12-22T13:16:26;8.60;1.00
314;DHT22;143;51.634;7.112;2023-12-22T13:18:54;8.60;1.00
314;DHT22;143;51.634;7.112;2023-12-22T13:21:20;8.70;1.00
314;DHT22;143;51.634;7.112;2023-12-22T13:23:46;8.40;1.00
314;DHT22;143;51.634;7.112;2023-12-22T13:26:21;8.30;1.00
314;DHT22;143;51.634;7.112;2023-12-22T13:28:47;8.30;1.00
314;DHT22;143;51.634;7.112;2023-12-22T13:31:13;8.60;1.00
314;DHT22;143;51.634;7.112;2023-12-22T13:33:40;8.60;1.00
314;DHT22;143;51.634;7.112;2023-12-22T13:36:06;8.50;1.00
314;DHT22;143;51.634;7.112;2023-12-22T13:38:32;8.30;1.00
314;DHT22;143;51.634;7.112;2023-12-22T13:41:01;8.50;1.00
314;DHT22;143;51.634;7.112;2023-12-22T13:43:29;8.50;1.00
314;DHT22;143;51.634;7.112;2023-12-22T13:45:56;8.50;1.00
314;DHT22;143;51.634;7.112;2023-12-22T13:48:22;8.50;1.00
314;DHT22;143;51.634;7.112;2023-12-22T13:50:57;8.60;1.00
314;DHT22;143;51.634;7.112;2023-12-22T13:53:24;8.70;1.00
314;DHT22;143;51.634;7.112;2023-12-22T13:55:56;8.90;1.00
314;DHT22;143;51.634;7.112;2023-12-22T13:58:22;8.60;1.00
314;DHT22;143;51.634;7.112;2023-12-22T14:00:48;8.70;1.00
314;DHT22;143;51.634;7.112;2023-12-22T14:03:14;8.70;1.00
314;DHT22;143;51.634;7.112;2023-12-22T14:05:42;8.80;1.00
314;DHT22;143;51.634;7.112;2023-12-22T14:08:08;8.90;1.00
314;DHT22;143;51.634;7.112;2023-12-22T14:10:33;8.80;1.00
314;DHT22;143;51.634;7.112;2023-12-22T14:12:59;8.80;1.00
314;DHT22;143;51.634;7.112;2023-12-22T14:15:25;8.80;1.00
314;DHT22;143;51.634;7.112;2023-12-22T14:17:54;8.90;1.00
314;DHT22;143;51.634;7.112;2023-12-22T14:20:20;8.70;1.00
314;DHT22;143;51.634;7.112;2023-12-22T14:22:46;9.10;1.00
314;DHT22;143;51.634;7.112;2023-12-22T14:25:11;8.90;1.00
314;DHT22;143;51.634;7.112;2023-12-22T14:27:37;8.90;1.00
314;DHT22;143;51.634;7.112;2023-12-22T14:30:05;8.90;1.00
314;DHT22;143;51.634;7.112;2023-12-22T14:32:31;8.90;1.00
314;DHT22;143;51.634;7.112;2023-12-22T14:34:57;8.80;1.00
314;DHT22;143;51.634;7.112;2023-12-22T14:37:22;9.10;1.00
314;DHT22;143;51.634;7.112;2023-12-22T14:39:48;8.90;1.00
314;DHT22;143;51.634;7.112;2023-12-22T14:42:14;9.20;1.00
314;DHT22;143;51.634;7.112;2023-12-22T14:44:39;9.20;1.00
314;DHT22;143;51.634;7.112;2023-12-22T14:47:06;9.00;1.00
314;DHT22;143;51.634;7.112;2023-12-22T14:49:31;9.00;1.00
314;DHT22;143;51.634;7.112;2023-12-22T14:51:57;9.20;1.00
314;DHT22;143;51.634;7.112;2023-12-22T14:54:24;9.00;1.00
314;DHT22;143;51.634;7.112;2023-12-22T14:56:50;9.30;1.00
314;DHT22;143;51.634;7.112;2023-12-22T14:59:16;9.20;1.00
314;DHT22;143;51.634;7.112;2023-12-22T15:01:42;9.10;1.00
314;DHT22;143;51.634;7.112;2023-12-22T15:04:08;9.10;1.00
314;DHT22;143;51.634;7.112;2023-12-22T15:06:40;9.30;1.00
314;DHT22;143;51.634;7.112;2023-12-22T15:09:07;9.30;1.00
314;DHT22;143;51.634;7.112;2023-12-22T15:11:32;8.90;1.00
314;DHT22;143;51.634;7.112;2023-12-22T15:13:58;9.00;1.00
314;DHT22;143;51.634;7.112;2023-12-22T15:16:24;9.10;1.00
314;DHT22;143;51.634;7.112;2023-12-22T15:18:50;8.90;1.00
314;DHT22;143;51.634;7.112;2023-12-22T15:21:22;8.80;1.00
314;DHT22;143;51.634;7.112;2023-12-22T15:23:49;9.10;1.00
314;DHT22;143;51.634;7.112;2023-12-22T15:26:22;9.00;1.00
314;DHT22;143;51.634;7.112;2023-12-22T15:28:51;8.80;1.00
314;DHT22;143;51.634;7.112;2023-12-22T15:31:17;8.80;1.00
314;DHT22;143;51.634;7.112;2023-12-22T15:33:43;8.90;1.00
314;DHT22;143;51.634;7.112;2023-12-22T15:36:09;8.90;1.00
314;DHT22;143;51.634;7.112;2023-12-22T15:38:34;9.00;1.00
314;DHT22;143;51.634;7.112;2023-12-22T15:41:00;9.00;1.00
314;DHT22;143;51.634;7.112;2023-12-22T15:43:27;9.00;1.00
314;DHT22;143;51.634;7.112;2023-12-22T15:45:52;8.80;1.00
314;DHT22;143;51.634;7.112;2023-12-22T15:48:18;8.90;1.00
314;DHT22;143;51.634;7.112;2023-12-22T15:50:44;8.80;1.00
314;DHT22;143;51.634;7.112;2023-12-22T15:53:11;8.70;1.00
314;DHT22;143;51.634;7.112;2023-12-22T15:55:37;8.80;1.00
314;DHT22;143;51.634;7.112;2023-12-22T15:58:02;9.00;1.00
314;DHT22;143;51.634;7.112;2023-12-22T16:00:28;9.00;1.00
314;DHT22;143;51.634;7.112;2023-12-22T16:02:53;8.70;1.00
314;DHT22;143;51.634;7.112;2023-12-22T16:05:19;8.80;1.00
314;DHT22;143;51.634;7.112;2023-12-22T16:07:45;8.90;1.00
314;DHT22;143;51.634;7.112;2023-12-22T16:10:10;9.10;1.00
314;DHT22;143;51.634;7.112;2023-12-22T16:12:37;8.90;1.00
314;DHT22;143;51.634;7.112;2023-12-22T16:15:02;9.00;1.00
314;DHT22;143;51.634;7.112;2023-12-22T16:17:28;9.10;1.00
314;DHT22;143;51.634;7.112;2023-12-22T16:19:54;9.20;1.00
314;DHT22;143;51.634;7.112;2023-12-22T16:22:19;9.10;1.00
314;DHT22;143;51.634;7.112;2023-12-22T16:24:45;9.20;1.00
314;DHT22;143;51.634;7.112;2023-12-22T16:27:10;9.10;1.00
314;DHT22;143;51.634;7.112;2023-12-22T16:29:39;9.10;1.00
314;DHT22;143;51.634;7.112;2023-12-22T16:32:05;8.90;1.00
314;DHT22;143;51.634;7.112;2023-12-22T16:34:31;9.20;1.00
314;DHT22;143;51.634;7.112;2023-12-22T16:36:56;9.10;1.00
314;DHT22;143;51.634;7.112;2023-12-22T16:39:23;9.20;1.00
314;DHT22;143;51.634;7.112;2023-12-22T16:41:49;9.20;1.00
314;DHT22;143;51.634;7.112;2023-12-22T16:44:15;9.20;1.00
314;DHT22;143;51.634;7.112;2023-12-22T16:46:41;9.00;1.00
314;DHT22;143;51.634;7.112;2023-12-22T16:49:08;9.10;1.00
314;DHT22;143;51.634;7.112;2023-12-22T16:51:34;9.40;1.00
314;DHT22;143;51.634;7.112;2023-12-22T16:54:00;9.20;1.00
314;DHT22;143;51.634;7.112;2023-12-22T16:56:28;9.30;1.00
314;DHT22;143;51.634;7.112;2023-12-22T16:58:53;9.40;1.00
314;DHT22;143;51.634;7.112;2023-12-22T17:01:19;9.40;1.00
314;DHT22;143;51.634;7.112;2023-12-22T17:03:45;9.40;1.00
314;DHT22;143;51.634;7.112;2023-12-22T17:06:10;9.30;1.00
314;DHT22;143;51.634;7.112;2023-12-22T17:08:36;9.10;1.00
314;DHT22;143;51.634;7.112;2023-12-22T17:11:01;9.20;1.00
314;DHT22;143;51.634;7.112;2023-12-22T17:13:27;9.30;1.00
314;DHT22;143;51.634;7.112;2023-12-22T17:15:53;9.20;1.00
314;DHT22;143;51.634;7.112;2023-12-22T17:18:18;9.30;1.00